sensor_id;sensor_type;location;lat;lon;timestamp;temperature;humidity
67559;DHT22;54388;53.536;49.300;2023-05-10T00:00:28;10.60;30.30
67559;DHT22;54388;53.536;49.300;2023-05-10T00:02:55;10.50;30.30
67559;DHT22;54388;53.536;49.300;2023-05-10T00:05:28;10.50;30.20
67559;DHT22;54388;53.536;49.300;2023-05-10T00:07:57;10.50;30.30
67559;DHT22;54388;53.536;49.300;2023-05-10T00:10:24;10.50;30.30
67559;DHT22;54388;53.536;49.300;2023-05-10T00:12:51;10.40;30.30
67559;DHT22;54388;53.536;49.300;2023-05-10T00:15:20;10.40;30.40
67559;DHT22;54388;53.536;49.300;2023-05-10T00:17:49;10.40;30.50
67559;DHT22;54388;53.536;49.300;2023-05-10T00:20:21;10.40;30.50
67559;DHT22;54388;53.536;49.300;2023-05-10T00:22:53;10.30;30.50
67559;DHT22;54388;53.536;49.300;2023-05-10T00:25:22;10.30;30.60
67559;DHT22;54388;53.536;49.300;2023-05-10T00:27:49;10.30;30.70
67559;DHT22;54388;53.536;49.300;2023-05-10T00:30:16;10.20;30.70
67559;DHT22;54388;53.536;49.300;2023-05-10T00:32:43;10.20;30.80
67559;DHT22;54388;53.536;49.300;2023-05-10T00:35:13;10.20;30.80
67559;DHT22;54388;53.536;49.300;2023-05-10T00:37:42;10.20;30.80
67559;DHT22;54388;53.536;49.300;2023-05-10T00:40:12;10.10;30.80
67559;DHT22;54388;53.536;49.300;2023-05-10T00:42:44;10.10;30.90
67559;DHT22;54388;53.536;49.300;2023-05-10T00:45:14;10.10;30.90
67559;DHT22;54388;53.536;49.300;2023-05-10T00:47:45;10.10;31.00
67559;DHT22;54388;53.536;49.300;2023-05-10T00:50:14;10.10;31.00
67559;DHT22;54388;53.536;49.300;2023-05-10T00:52:46;10.10;31.00
67559;DHT22;54388;53.536;49.300;2023-05-10T00:55:15;10.00;31.10
67559;DHT22;54388;53.536;49.300;2023-05-10T00:57:47;10.00;31.20
67559;DHT22;54388;53.536;49.300;2023-05-10T01:00:20;10.00;31.20
67559;DHT22;54388;53.536;49.300;2023-05-10T01:02:47;10.00;31.30
67559;DHT22;54388;53.536;49.300;2023-05-10T01:05:14;10.00;31.30
67559;DHT22;54388;53.536;49.300;2023-05-10T01:07:43;10.00;31.40
67559;DHT22;54388;53.536;49.300;2023-05-10T01:10:10;9.90;31.50
67559;DHT22;54388;53.536;49.300;2023-05-10T01:12:41;9.90;31.50
67559;DHT22;54388;53.536;49.300;2023-05-10T01:15:17;9.90;31.70
67559;DHT22;54388;53.536;49.300;2023-05-10T01:17:51;9.90;31.70
67559;DHT22;54388;53.536;49.300;2023-05-10T01:20:25;9.90;31.70
67559;DHT22;54388;53.536;49.300;2023-05-10T01:25:47;9.90;31.90
67559;DHT22;54388;53.536;49.300;2023-05-10T01:34:09;10.00;32.00
67559;DHT22;54388;53.536;49.300;2023-05-10T01:36:54;10.00;32.00
67559;DHT22;54388;53.536;49.300;2023-05-10T01:42:25;10.10;32.00
67559;DHT22;54388;53.536;49.300;2023-05-10T01:45:14;10.10;31.90
67559;DHT22;54388;53.536;49.300;2023-05-10T01:47:46;10.20;31.80
67559;DHT22;54388;53.536;49.300;2023-05-10T01:50:36;10.30;31.80
67559;DHT22;54388;53.536;49.300;2023-05-10T01:53:11;10.30;31.70
67559;DHT22;54388;53.536;49.300;2023-05-10T01:55:48;10.40;31.60
67559;DHT22;54388;53.536;49.300;2023-05-10T01:58:23;10.50;31.60
67559;DHT22;54388;53.536;49.300;2023-05-10T02:00:54;10.50;31.50
67559;DHT22;54388;53.536;49.300;2023-05-10T02:03:28;10.60;31.30
67559;DHT22;54388;53.536;49.300;2023-05-10T02:05:59;10.70;31.30
67559;DHT22;54388;53.536;49.300;2023-05-10T02:08:31;10.80;31.20
67559;DHT22;54388;53.536;49.300;2023-05-10T02:10:59;10.80;32.10
67559;DHT22;54388;53.536;49.300;2023-05-10T02:13:27;10.90;31.00
67559;DHT22;54388;53.536;49.300;2023-05-10T02:15:58;10.90;30.90
67559;DHT22;54388;53.536;49.300;2023-05-10T02:18:27;11.00;30.90
67559;DHT22;54388;53.536;49.300;2023-05-10T02:20:57;11.00;30.90
67559;DHT22;54388;53.536;49.300;2023-05-10T02:23:25;11.10;31.90
67559;DHT22;54388;53.536;49.300;2023-05-10T02:25:56;11.10;30.80
67559;DHT22;54388;53.536;49.300;2023-05-10T02:28:29;11.20;30.80
67559;DHT22;54388;53.536;49.300;2023-05-10T02:30:56;11.20;30.70
67559;DHT22;54388;53.536;49.300;2023-05-10T02:33:29;11.30;30.70
67559;DHT22;54388;53.536;49.300;2023-05-10T02:36:01;11.30;30.70
67559;DHT22;54388;53.536;49.300;2023-05-10T02:38:36;11.40;30.70
67559;DHT22;54388;53.536;49.300;2023-05-10T02:41:05;11.50;30.70
67559;DHT22;54388;53.536;49.300;2023-05-10T02:43:35;11.60;30.60
67559;DHT22;54388;53.536;49.300;2023-05-10T02:46:04;11.70;30.50
67559;DHT22;54388;53.536;49.300;2023-05-10T02:48:35;11.80;30.40
67559;DHT22;54388;53.536;49.300;2023-05-10T02:51:07;12.00;30.40
67559;DHT22;54388;53.536;49.300;2023-05-10T02:53:36;12.10;30.30
67559;DHT22;54388;53.536;49.300;2023-05-10T02:56:09;12.20;30.20
67559;DHT22;54388;53.536;49.300;2023-05-10T02:58:38;12.40;30.10
67559;DHT22;54388;53.536;49.300;2023-05-10T03:01:10;12.50;30.10
67559;DHT22;54388;53.536;49.300;2023-05-10T03:03:37;12.60;30.00
67559;DHT22;54388;53.536;49.300;2023-05-10T03:06:07;12.70;29.90
67559;DHT22;54388;53.536;49.300;2023-05-10T03:08:36;12.90;29.90
67559;DHT22;54388;53.536;49.300;2023-05-10T03:11:16;13.00;29.70
67559;DHT22;54388;53.536;49.300;2023-05-10T03:14:25;13.10;29.50
67559;DHT22;54388;53.536;49.300;2023-05-10T03:17:15;13.20;29.40
67559;DHT22;54388;53.536;49.300;2023-05-10T03:20:06;13.30;29.30
67559;DHT22;54388;53.536;49.300;2023-05-10T03:22:55;13.50;29.30
67559;DHT22;54388;53.536;49.300;2023-05-10T03:25:23;13.60;29.20
67559;DHT22;54388;53.536;49.300;2023-05-10T03:27:51;13.70;29.00
67559;DHT22;54388;53.536;49.300;2023-05-10T03:30:19;13.80;28.90
67559;DHT22;54388;53.536;49.300;2023-05-10T03:32:45;13.90;28.80
67559;DHT22;54388;53.536;49.300;2023-05-10T03:35:12;14.10;28.70
67559;DHT22;54388;53.536;49.300;2023-05-10T03:37:42;14.20;28.60
67559;DHT22;54388;53.536;49.300;2023-05-10T03:40:10;14.30;28.40
67559;DHT22;54388;53.536;49.300;2023-05-10T03:42:39;14.40;28.30
67559;DHT22;54388;53.536;49.300;2023-05-10T03:45:11;14.50;28.20
67559;DHT22;54388;53.536;49.300;2023-05-10T03:47:37;14.70;28.20
67559;DHT22;54388;53.536;49.300;2023-05-10T03:50:04;14.80;28.10
67559;DHT22;54388;53.536;49.300;2023-05-10T03:52:31;14.90;28.10
67559;DHT22;54388;53.536;49.300;2023-05-10T03:55:00;15.00;27.90
67559;DHT22;54388;53.536;49.300;2023-05-10T03:57:29;15.10;27.80
67559;DHT22;54388;53.536;49.300;2023-05-10T03:59:56;15.20;27.50
67559;DHT22;54388;53.536;49.300;2023-05-10T04:02:22;15.30;27.40
67559;DHT22;54388;53.536;49.300;2023-05-10T04:04:49;15.40;27.40
67559;DHT22;54388;53.536;49.300;2023-05-10T04:07:18;15.50;27.40
67559;DHT22;54388;53.536;49.300;2023-05-10T04:09:45;15.70;27.30
67559;DHT22;54388;53.536;49.300;2023-05-10T04:12:11;15.80;27.20
67559;DHT22;54388;53.536;49.300;2023-05-10T04:14:41;15.90;27.10
67559;DHT22;54388;53.536;49.300;2023-05-10T04:17:07;16.10;27.00
67559;DHT22;54388;53.536;49.300;2023-05-10T04:19:34;16.20;26.80
67559;DHT22;54388;53.536;49.300;2023-05-10T04:22:02;16.40;26.70
67559;DHT22;54388;53.536;49.300;2023-05-10T04:24:29;16.50;26.40
67559;DHT22;54388;53.536;49.300;2023-05-10T04:26:58;16.70;26.20
67559;DHT22;54388;53.536;49.300;2023-05-10T04:29:25;16.90;25.90
67559;DHT22;54388;53.536;49.300;2023-05-10T04:31:52;17.20;25.70
67559;DHT22;54388;53.536;49.300;2023-05-10T04:34:21;17.40;25.30
67559;DHT22;54388;53.536;49.300;2023-05-10T04:36:48;17.60;24.90
67559;DHT22;54388;53.536;49.300;2023-05-10T04:39:17;18.00;24.60
67559;DHT22;54388;53.536;49.300;2023-05-10T04:41:43;18.30;23.90
67559;DHT22;54388;53.536;49.300;2023-05-10T04:44:13;18.50;23.30
67559;DHT22;54388;53.536;49.300;2023-05-10T04:46:42;18.80;23.00
67559;DHT22;54388;53.536;49.300;2023-05-10T04:49:08;19.10;22.60
67559;DHT22;54388;53.536;49.300;2023-05-10T04:51:35;19.40;22.20
67559;DHT22;54388;53.536;49.300;2023-05-10T04:54:04;19.60;22.10
67559;DHT22;54388;53.536;49.300;2023-05-10T04:56:30;20.00;21.60
67559;DHT22;54388;53.536;49.300;2023-05-10T04:58:59;20.40;21.40
67559;DHT22;54388;53.536;49.300;2023-05-10T05:01:28;20.70;20.90
67559;DHT22;54388;53.536;49.300;2023-05-10T05:03:55;21.10;20.60
67559;DHT22;54388;53.536;49.300;2023-05-10T05:06:24;21.40;21.10
67559;DHT22;54388;53.536;49.300;2023-05-10T05:08:51;21.90;20.80
67559;DHT22;54388;53.536;49.300;2023-05-10T05:11:24;22.30;19.70
67559;DHT22;54388;53.536;49.300;2023-05-10T05:13:56;22.60;19.30
67559;DHT22;54388;53.536;49.300;2023-05-10T05:16:25;23.00;18.90
67559;DHT22;54388;53.536;49.300;2023-05-10T05:18:51;23.30;18.60
67559;DHT22;54388;53.536;49.300;2023-05-10T05:21:21;23.60;18.10
67559;DHT22;54388;53.536;49.300;2023-05-10T05:23:48;23.90;17.90
67559;DHT22;54388;53.536;49.300;2023-05-10T05:26:15;24.20;17.70
67559;DHT22;54388;53.536;49.300;2023-05-10T05:28:42;24.50;17.50
67559;DHT22;54388;53.536;49.300;2023-05-10T05:31:11;24.80;17.20
67559;DHT22;54388;53.536;49.300;2023-05-10T05:33:38;25.20;17.00
67559;DHT22;54388;53.536;49.300;2023-05-10T05:36:07;25.40;16.60
67559;DHT22;54388;53.536;49.300;2023-05-10T05:38:33;25.60;16.30
67559;DHT22;54388;53.536;49.300;2023-05-10T05:41:02;25.70;16.40
67559;DHT22;54388;53.536;49.300;2023-05-10T05:43:33;25.80;16.00
67559;DHT22;54388;53.536;49.300;2023-05-10T05:46:00;26.00;15.70
67559;DHT22;54388;53.536;49.300;2023-05-10T05:48:27;26.20;15.40
67559;DHT22;54388;53.536;49.300;2023-05-10T05:50:58;26.50;15.30
67559;DHT22;54388;53.536;49.300;2023-05-10T05:53:25;26.70;15.30
67559;DHT22;54388;53.536;49.300;2023-05-10T05:56:00;26.80;15.70
67559;DHT22;54388;53.536;49.300;2023-05-10T05:58:27;26.90;14.50
67559;DHT22;54388;53.536;49.300;2023-05-10T06:00:54;26.90;14.50
67559;DHT22;54388;53.536;49.300;2023-05-10T06:03:20;26.90;14.40
67559;DHT22;54388;53.536;49.300;2023-05-10T06:05:47;27.00;14.40
67559;DHT22;54388;53.536;49.300;2023-05-10T06:08:14;27.10;14.30
67559;DHT22;54388;53.536;49.300;2023-05-10T06:10:41;27.20;14.20
67559;DHT22;54388;53.536;49.300;2023-05-10T06:13:10;27.30;14.10
67559;DHT22;54388;53.536;49.300;2023-05-10T06:15:39;27.40;13.80
67559;DHT22;54388;53.536;49.300;2023-05-10T06:18:06;27.50;13.80
67559;DHT22;54388;53.536;49.300;2023-05-10T06:20:33;27.70;13.60
67559;DHT22;54388;53.536;49.300;2023-05-10T06:23:04;27.70;13.40
67559;DHT22;54388;53.536;49.300;2023-05-10T06:25:33;27.80;13.40
67559;DHT22;54388;53.536;49.300;2023-05-10T06:28:03;27.80;13.40
67559;DHT22;54388;53.536;49.300;2023-05-10T06:30:32;27.90;13.40
67559;DHT22;54388;53.536;49.300;2023-05-10T06:32:59;28.10;13.20
67559;DHT22;54388;53.536;49.300;2023-05-10T06:35:28;28.30;13.00
67559;DHT22;54388;53.536;49.300;2023-05-10T06:37:58;28.40;12.90
67559;DHT22;54388;53.536;49.300;2023-05-10T06:40:24;28.40;12.80
67559;DHT22;54388;53.536;49.300;2023-05-10T06:42:53;28.50;12.80
67559;DHT22;54388;53.536;49.300;2023-05-10T06:45:22;28.40;12.70
67559;DHT22;54388;53.536;49.300;2023-05-10T06:47:49;28.60;12.80
67559;DHT22;54388;53.536;49.300;2023-05-10T06:50:18;28.70;12.60
67559;DHT22;54388;53.536;49.300;2023-05-10T06:52:47;28.70;12.70
67559;DHT22;54388;53.536;49.300;2023-05-10T06:55:14;28.80;12.80
67559;DHT22;54388;53.536;49.300;2023-05-10T06:57:40;28.90;12.90
67559;DHT22;54388;53.536;49.300;2023-05-10T07:00:07;28.90;12.70
67559;DHT22;54388;53.536;49.300;2023-05-10T07:02:38;29.00;12.50
67559;DHT22;54388;53.536;49.300;2023-05-10T07:05:08;29.20;12.40
67559;DHT22;54388;53.536;49.300;2023-05-10T07:07:37;29.40;12.20
67559;DHT22;54388;53.536;49.300;2023-05-10T07:10:06;29.60;12.40
67559;DHT22;54388;53.536;49.300;2023-05-10T07:12:34;29.60;12.30
67559;DHT22;54388;53.536;49.300;2023-05-10T07:15:00;29.50;12.20
67559;DHT22;54388;53.536;49.300;2023-05-10T07:17:29;29.50;12.20
67559;DHT22;54388;53.536;49.300;2023-05-10T07:19:59;29.50;12.00
67559;DHT22;54388;53.536;49.300;2023-05-10T07:22:28;29.50;11.80
67559;DHT22;54388;53.536;49.300;2023-05-10T07:24:58;29.60;11.90
67559;DHT22;54388;53.536;49.300;2023-05-10T07:27:24;29.70;12.10
67559;DHT22;54388;53.536;49.300;2023-05-10T07:29:51;29.60;11.90
67559;DHT22;54388;53.536;49.300;2023-05-10T07:32:20;29.60;11.80
67559;DHT22;54388;53.536;49.300;2023-05-10T07:34:49;29.70;11.70
67559;DHT22;54388;53.536;49.300;2023-05-10T07:37:18;29.60;11.60
67559;DHT22;54388;53.536;49.300;2023-05-10T07:39:44;29.60;11.60
67559;DHT22;54388;53.536;49.300;2023-05-10T07:42:13;29.60;11.50
67559;DHT22;54388;53.536;49.300;2023-05-10T07:44:42;29.80;11.60
67559;DHT22;54388;53.536;49.300;2023-05-10T07:47:09;30.00;11.50
67559;DHT22;54388;53.536;49.300;2023-05-10T07:49:35;30.40;12.40
67559;DHT22;54388;53.536;49.300;2023-05-10T07:52:03;30.60;11.50
67559;DHT22;54388;53.536;49.300;2023-05-10T07:54:32;30.80;11.30
67559;DHT22;54388;53.536;49.300;2023-05-10T07:57:00;30.80;11.30
67559;DHT22;54388;53.536;49.300;2023-05-10T07:59:27;30.90;11.20
67559;DHT22;54388;53.536;49.300;2023-05-10T08:01:58;30.90;11.30
67559;DHT22;54388;53.536;49.300;2023-05-10T08:04:27;30.90;11.30
67559;DHT22;54388;53.536;49.300;2023-05-10T08:06:53;30.90;11.30
67559;DHT22;54388;53.536;49.300;2023-05-10T08:09:22;31.00;11.40
67559;DHT22;54388;53.536;49.300;2023-05-10T08:11:50;31.00;11.30
67559;DHT22;54388;53.536;49.300;2023-05-10T08:14:19;31.00;11.30
67559;DHT22;54388;53.536;49.300;2023-05-10T08:16:48;31.00;11.10
67559;DHT22;54388;53.536;49.300;2023-05-10T08:19:16;31.00;11.20
67559;DHT22;54388;53.536;49.300;2023-05-10T08:21:52;31.00;11.20
67559;DHT22;54388;53.536;49.300;2023-05-10T08:24:25;31.00;11.20
67559;DHT22;54388;53.536;49.300;2023-05-10T08:26:54;31.10;11.10
67559;DHT22;54388;53.536;49.300;2023-05-10T08:29:26;31.10;10.90
67559;DHT22;54388;53.536;49.300;2023-05-10T08:31:55;31.00;10.90
67559;DHT22;54388;53.536;49.300;2023-05-10T08:34:29;31.00;10.90
67559;DHT22;54388;53.536;49.300;2023-05-10T08:36:57;31.20;11.00
67559;DHT22;54388;53.536;49.300;2023-05-10T08:39:24;31.30;10.80
67559;DHT22;54388;53.536;49.300;2023-05-10T08:41:51;31.50;10.70
67559;DHT22;54388;53.536;49.300;2023-05-10T08:44:20;31.70;10.80
67559;DHT22;54388;53.536;49.300;2023-05-10T08:46:53;31.60;10.70
67559;DHT22;54388;53.536;49.300;2023-05-10T08:49:21;31.60;10.80
67559;DHT22;54388;53.536;49.300;2023-05-10T08:51:56;31.60;10.90
67559;DHT22;54388;53.536;49.300;2023-05-10T08:54:23;31.60;10.80
67559;DHT22;54388;53.536;49.300;2023-05-10T08:56:53;31.60;10.80
67559;DHT22;54388;53.536;49.300;2023-05-10T08:59:22;31.60;10.80
67559;DHT22;54388;53.536;49.300;2023-05-10T09:01:52;31.60;10.80
67559;DHT22;54388;53.536;49.300;2023-05-10T09:04:25;31.50;10.80
67559;DHT22;54388;53.536;49.300;2023-05-10T09:06:52;31.50;10.80
67559;DHT22;54388;53.536;49.300;2023-05-10T09:09:20;31.40;10.70
67559;DHT22;54388;53.536;49.300;2023-05-10T09:11:48;31.30;10.70
67559;DHT22;54388;53.536;49.300;2023-05-10T09:14:15;31.20;10.80
67559;DHT22;54388;53.536;49.300;2023-05-10T09:16:45;31.10;10.90
67559;DHT22;54388;53.536;49.300;2023-05-10T09:19:12;31.00;10.90
67559;DHT22;54388;53.536;49.300;2023-05-10T09:21:39;31.00;10.90
67559;DHT22;54388;53.536;49.300;2023-05-10T09:24:06;31.00;11.00
67559;DHT22;54388;53.536;49.300;2023-05-10T09:26:33;31.00;11.20
67559;DHT22;54388;53.536;49.300;2023-05-10T09:29:02;31.00;11.20
67559;DHT22;54388;53.536;49.300;2023-05-10T09:31:47;31.00;11.00
67559;DHT22;54388;53.536;49.300;2023-05-10T09:34:20;31.00;11.00
67559;DHT22;54388;53.536;49.300;2023-05-10T09:36:54;31.10;11.00
67559;DHT22;54388;53.536;49.300;2023-05-10T09:39:21;31.20;10.90
67559;DHT22;54388;53.536;49.300;2023-05-10T09:41:56;31.30;11.00
67559;DHT22;54388;53.536;49.300;2023-05-10T09:44:25;31.30;10.90
67559;DHT22;54388;53.536;49.300;2023-05-10T09:46:54;31.30;10.90
67559;DHT22;54388;53.536;49.300;2023-05-10T09:49:24;31.30;10.90
67559;DHT22;54388;53.536;49.300;2023-05-10T09:52:07;31.30;11.00
67559;DHT22;54388;53.536;49.300;2023-05-10T09:54:34;31.30;11.00
67559;DHT22;54388;53.536;49.300;2023-05-10T09:57:02;31.30;11.00
67559;DHT22;54388;53.536;49.300;2023-05-10T09:59:33;31.30;10.90
67559;DHT22;54388;53.536;49.300;2023-05-10T10:02:01;31.40;11.00
67559;DHT22;54388;53.536;49.300;2023-05-10T10:04:28;31.30;10.90
67559;DHT22;54388;53.536;49.300;2023-05-10T10:07:03;31.30;11.10
67559;DHT22;54388;53.536;49.300;2023-05-10T10:09:30;31.20;10.90
67559;DHT22;54388;53.536;49.300;2023-05-10T10:11:59;31.20;11.00
67559;DHT22;54388;53.536;49.300;2023-05-10T10:14:26;31.30;10.90
67559;DHT22;54388;53.536;49.300;2023-05-10T10:16:53;31.30;10.90
67559;DHT22;54388;53.536;49.300;2023-05-10T10:19:25;31.30;10.80
67559;DHT22;54388;53.536;49.300;2023-05-10T10:21:52;31.30;11.70
67559;DHT22;54388;53.536;49.300;2023-05-10T10:24:24;31.20;11.00
67559;DHT22;54388;53.536;49.300;2023-05-10T10:26:55;31.30;11.10
67559;DHT22;54388;53.536;49.300;2023-05-10T10:29:58;31.30;10.90
67559;DHT22;54388;53.536;49.300;2023-05-10T10:35:06;31.40;11.00
67559;DHT22;54388;53.536;49.300;2023-05-10T10:37:44;31.30;10.80
67559;DHT22;54388;53.536;49.300;2023-05-10T10:40:29;31.30;10.70
67559;DHT22;54388;53.536;49.300;2023-05-10T10:43:20;31.30;10.90
67559;DHT22;54388;53.536;49.300;2023-05-10T10:45:45;31.20;10.80
67559;DHT22;54388;53.536;49.300;2023-05-10T10:48:23;31.30;10.90
67559;DHT22;54388;53.536;49.300;2023-05-10T10:50:56;31.30;10.80
67559;DHT22;54388;53.536;49.300;2023-05-10T10:53:27;31.30;10.70
67559;DHT22;54388;53.536;49.300;2023-05-10T10:56:07;31.30;10.80
67559;DHT22;54388;53.536;49.300;2023-05-10T10:58:36;31.30;10.90
67559;DHT22;54388;53.536;49.300;2023-05-10T11:01:19;31.30;10.90
67559;DHT22;54388;53.536;49.300;2023-05-10T11:06:35;31.40;10.90
67559;DHT22;54388;53.536;49.300;2023-05-10T11:09:09;31.50;10.70
67559;DHT22;54388;53.536;49.300;2023-05-10T11:11:57;31.50;10.60
67559;DHT22;54388;53.536;49.300;2023-05-10T11:14:28;31.50;10.70
67559;DHT22;54388;53.536;49.300;2023-05-10T11:16:58;31.50;10.90
67559;DHT22;54388;53.536;49.300;2023-05-10T11:19:27;31.50;11.00
67559;DHT22;54388;53.536;49.300;2023-05-10T11:24:30;31.30;10.90
67559;DHT22;54388;53.536;49.300;2023-05-10T11:27:00;31.30;10.80
67559;DHT22;54388;53.536;49.300;2023-05-10T11:29:27;31.30;10.80
67559;DHT22;54388;53.536;49.300;2023-05-10T11:31:59;31.30;10.80
67559;DHT22;54388;53.536;49.300;2023-05-10T11:34:28;31.30;10.70
67559;DHT22;54388;53.536;49.300;2023-05-10T11:36:59;31.40;10.70
67559;DHT22;54388;53.536;49.300;2023-05-10T11:39:30;31.50;10.60
67559;DHT22;54388;53.536;49.300;2023-05-10T11:42:01;31.50;10.60
67559;DHT22;54388;53.536;49.300;2023-05-10T11:44:32;31.50;10.60
67559;DHT22;54388;53.536;49.300;2023-05-10T11:47:02;31.60;10.70
67559;DHT22;54388;53.536;49.300;2023-05-10T11:49:29;31.70;10.70
67559;DHT22;54388;53.536;49.300;2023-05-10T11:52:06;31.80;10.60
67559;DHT22;54388;53.536;49.300;2023-05-10T11:54:33;31.80;10.60
67559;DHT22;54388;53.536;49.300;2023-05-10T11:57:03;31.90;10.50
67559;DHT22;54388;53.536;49.300;2023-05-10T11:59:30;31.90;10.40
67559;DHT22;54388;53.536;49.300;2023-05-10T12:01:56;32.00;10.50
67559;DHT22;54388;53.536;49.300;2023-05-10T12:04:23;32.00;10.50
67559;DHT22;54388;53.536;49.300;2023-05-10T12:06:50;32.10;10.50
67559;DHT22;54388;53.536;49.300;2023-05-10T12:09:17;32.10;10.40
67559;DHT22;54388;53.536;49.300;2023-05-10T12:11:48;32.20;10.40
67559;DHT22;54388;53.536;49.300;2023-05-10T12:14:14;32.20;10.40
67559;DHT22;54388;53.536;49.300;2023-05-10T12:16:45;32.20;10.50
67559;DHT22;54388;53.536;49.300;2023-05-10T12:19:12;32.30;10.40
67559;DHT22;54388;53.536;49.300;2023-05-10T12:21:44;32.30;10.30
67559;DHT22;54388;53.536;49.300;2023-05-10T12:24:13;32.30;10.30
67559;DHT22;54388;53.536;49.300;2023-05-10T12:26:44;32.30;10.20
67559;DHT22;54388;53.536;49.300;2023-05-10T12:29:20;32.30;10.20
67559;DHT22;54388;53.536;49.300;2023-05-10T12:31:56;32.30;10.30
67559;DHT22;54388;53.536;49.300;2023-05-10T12:34:26;32.30;10.20
67559;DHT22;54388;53.536;49.300;2023-05-10T12:36:54;32.30;10.20
67559;DHT22;54388;53.536;49.300;2023-05-10T12:39:23;32.30;10.20
67559;DHT22;54388;53.536;49.300;2023-05-10T12:41:51;32.30;10.20
67559;DHT22;54388;53.536;49.300;2023-05-10T12:44:18;32.30;10.20
67559;DHT22;54388;53.536;49.300;2023-05-10T12:46:45;32.30;10.20
67559;DHT22;54388;53.536;49.300;2023-05-10T12:49:11;32.30;10.40
67559;DHT22;54388;53.536;49.300;2023-05-10T12:51:38;32.20;10.40
67559;DHT22;54388;53.536;49.300;2023-05-10T12:54:04;32.10;10.50
67559;DHT22;54388;53.536;49.300;2023-05-10T12:56:31;32.00;10.60
67559;DHT22;54388;53.536;49.300;2023-05-10T12:58:58;32.00;10.60
67559;DHT22;54388;53.536;49.300;2023-05-10T13:01:24;32.00;10.60
67559;DHT22;54388;53.536;49.300;2023-05-10T13:03:53;32.00;10.60
67559;DHT22;54388;53.536;49.300;2023-05-10T13:06:20;31.90;10.60
67559;DHT22;54388;53.536;49.300;2023-05-10T13:08:46;31.90;10.60
67559;DHT22;54388;53.536;49.300;2023-05-10T13:11:13;31.90;10.50
67559;DHT22;54388;53.536;49.300;2023-05-10T13:13:42;31.80;10.50
67559;DHT22;54388;53.536;49.300;2023-05-10T13:16:09;31.80;10.50
67559;DHT22;54388;53.536;49.300;2023-05-10T13:18:36;31.70;10.50
67559;DHT22;54388;53.536;49.300;2023-05-10T13:21:05;31.60;10.50
67559;DHT22;54388;53.536;49.300;2023-05-10T13:23:34;31.60;10.50
67559;DHT22;54388;53.536;49.300;2023-05-10T13:26:02;31.60;10.40
67559;DHT22;54388;53.536;49.300;2023-05-10T13:28:30;31.60;10.50
67559;DHT22;54388;53.536;49.300;2023-05-10T13:30:57;31.60;10.50
67559;DHT22;54388;53.536;49.300;2023-05-10T13:33:23;31.70;10.50
67559;DHT22;54388;53.536;49.300;2023-05-10T13:35:50;31.70;10.50
67559;DHT22;54388;53.536;49.300;2023-05-10T13:38:19;31.80;10.40
67559;DHT22;54388;53.536;49.300;2023-05-10T13:40:48;31.90;10.30
67559;DHT22;54388;53.536;49.300;2023-05-10T13:43:19;32.00;10.30
67559;DHT22;54388;53.536;49.300;2023-05-10T13:45:45;32.00;10.20
67559;DHT22;54388;53.536;49.300;2023-05-10T13:48:14;32.00;10.20
67559;DHT22;54388;53.536;49.300;2023-05-10T13:50:43;32.00;10.20
67559;DHT22;54388;53.536;49.300;2023-05-10T13:53:09;31.90;10.20
67559;DHT22;54388;53.536;49.300;2023-05-10T13:55:38;31.90;10.20
67559;DHT22;54388;53.536;49.300;2023-05-10T13:58:05;31.90;10.30
67559;DHT22;54388;53.536;49.300;2023-05-10T14:00:31;31.90;10.20
67559;DHT22;54388;53.536;49.300;2023-05-10T14:02:58;31.80;10.20
67559;DHT22;54388;53.536;49.300;2023-05-10T14:05:26;31.70;10.30
67559;DHT22;54388;53.536;49.300;2023-05-10T14:07:58;31.70;10.20
67559;DHT22;54388;53.536;49.300;2023-05-10T14:10:27;31.60;10.10
67559;DHT22;54388;53.536;49.300;2023-05-10T14:12:53;31.60;10.20
67559;DHT22;54388;53.536;49.300;2023-05-10T14:15:24;31.60;10.10
67559;DHT22;54388;53.536;49.300;2023-05-10T14:17:53;31.60;10.20
67559;DHT22;54388;53.536;49.300;2023-05-10T14:20:22;31.60;10.10
67559;DHT22;54388;53.536;49.300;2023-05-10T14:22:53;31.70;10.20
67559;DHT22;54388;53.536;49.300;2023-05-10T14:25:25;31.60;10.10
67559;DHT22;54388;53.536;49.300;2023-05-10T14:27:54;31.60;10.10
67559;DHT22;54388;53.536;49.300;2023-05-10T14:30:21;31.70;10.20
67559;DHT22;54388;53.536;49.300;2023-05-10T14:32:49;31.80;10.20
67559;DHT22;54388;53.536;49.300;2023-05-10T14:35:16;31.60;10.10
67559;DHT22;54388;53.536;49.300;2023-05-10T14:37:42;31.60;10.20
67559;DHT22;54388;53.536;49.300;2023-05-10T14:40:12;31.50;10.10
67559;DHT22;54388;53.536;49.300;2023-05-10T14:42:42;31.50;10.10
67559;DHT22;54388;53.536;49.300;2023-05-10T14:45:11;31.50;10.20
67559;DHT22;54388;53.536;49.300;2023-05-10T14:47:38;31.50;10.30
67559;DHT22;54388;53.536;49.300;2023-05-10T14:50:05;31.40;10.30
67559;DHT22;54388;53.536;49.300;2023-05-10T14:52:32;31.30;10.50
67559;DHT22;54388;53.536;49.300;2023-05-10T14:55:00;31.20;10.50
67559;DHT22;54388;53.536;49.300;2023-05-10T14:57:27;31.20;10.50
67559;DHT22;54388;53.536;49.300;2023-05-10T14:59:57;31.10;10.50
67559;DHT22;54388;53.536;49.300;2023-05-10T15:02:23;31.00;10.60
67559;DHT22;54388;53.536;49.300;2023-05-10T15:04:53;30.90;10.70
67559;DHT22;54388;53.536;49.300;2023-05-10T15:07:19;30.70;10.70
67559;DHT22;54388;53.536;49.300;2023-05-10T15:09:46;30.70;10.80
67559;DHT22;54388;53.536;49.300;2023-05-10T15:12:15;30.70;10.80
67559;DHT22;54388;53.536;49.300;2023-05-10T15:14:42;30.60;10.90
67559;DHT22;54388;53.536;49.300;2023-05-10T15:17:08;30.30;10.90
67559;DHT22;54388;53.536;49.300;2023-05-10T15:19:37;30.10;11.10
67559;DHT22;54388;53.536;49.300;2023-05-10T15:22:04;29.80;11.20
67559;DHT22;54388;53.536;49.300;2023-05-10T15:24:34;29.50;11.30
67559;DHT22;54388;53.536;49.300;2023-05-10T15:27:03;29.30;11.50
67559;DHT22;54388;53.536;49.300;2023-05-10T15:29:32;29.00;11.60
67559;DHT22;54388;53.536;49.300;2023-05-10T15:32:03;28.80;11.80
67559;DHT22;54388;53.536;49.300;2023-05-10T15:34:30;28.60;12.00
67559;DHT22;54388;53.536;49.300;2023-05-10T15:37:02;28.30;12.40
67559;DHT22;54388;53.536;49.300;2023-05-10T15:39:31;28.10;12.80
67559;DHT22;54388;53.536;49.300;2023-05-10T15:42:04;28.00;13.10
67559;DHT22;54388;53.536;49.300;2023-05-10T15:44:33;27.80;13.20
67559;DHT22;54388;53.536;49.300;2023-05-10T15:47:09;27.50;13.40
67559;DHT22;54388;53.536;49.300;2023-05-10T15:49:36;27.30;13.60
67559;DHT22;54388;53.536;49.300;2023-05-10T15:52:08;27.10;13.80